sensor_id;sensor_type;location;lat;lon;timestamp;temperature;humidity
26595;DHT22;14238;49.496;8.154;2023-02-22T00:00:18;4.60;99.90
26595;DHT22;14238;49.496;8.154;2023-02-22T00:02:51;4.50;99.90
26595;DHT22;14238;49.496;8.154;2023-02-22T00:05:18;4.50;99.90
26595;DHT22;14238;49.496;8.154;2023-02-22T00:07:46;4.60;99.90
26595;DHT22;14238;49.496;8.154;2023-02-22T00:10:13;4.60;99.90
26595;DHT22;14238;49.496;8.154;2023-02-22T00:12:42;4.60;99.90
26595;DHT22;14238;49.496;8.154;2023-02-22T00:15:08;4.50;99.90
26595;DHT22;14238;49.496;8.154;2023-02-22T00:17:34;4.50;99.90
26595;DHT22;14238;49.496;8.154;2023-02-22T00:20:00;4.60;99.90
26595;DHT22;14238;49.496;8.154;2023-02-22T00:22:25;4.50;99.90
26595;DHT22;14238;49.496;8.154;2023-02-22T00:24:51;4.50;99.90
26595;DHT22;14238;49.496;8.154;2023-02-22T00:27:16;4.50;99.90
26595;DHT22;14238;49.496;8.154;2023-02-22T00:29:45;4.50;99.90
26595;DHT22;14238;49.496;8.154;2023-02-22T00:32:11;4.60;99.90
26595;DHT22;14238;49.496;8.154;2023-02-22T00:34:37;4.60;99.90
26595;DHT22;14238;49.496;8.154;2023-02-22T00:37:03;4.70;99.90
26595;DHT22;14238;49.496;8.154;2023-02-22T00:39:29;4.70;99.90
26595;DHT22;14238;49.496;8.154;2023-02-22T00:41:55;4.70;99.90
26595;DHT22;14238;49.496;8.154;2023-02-22T00:44:21;4.70;99.90
26595;DHT22;14238;49.496;8.154;2023-02-22T00:46:47;4.70;99.90
26595;DHT22;14238;49.496;8.154;2023-02-22T00:49:17;4.70;99.90
26595;DHT22;14238;49.496;8.154;2023-02-22T00:51:42;4.70;99.90
26595;DHT22;14238;49.496;8.154;2023-02-22T00:54:08;4.50;99.90
26595;DHT22;14238;49.496;8.154;2023-02-22T00:56:35;4.40;99.90
26595;DHT22;14238;49.496;8.154;2023-02-22T00:59:03;4.30;99.90
26595;DHT22;14238;49.496;8.154;2023-02-22T01:01:30;4.40;99.90
26595;DHT22;14238;49.496;8.154;2023-02-22T01:03:55;4.40;99.90
26595;DHT22;14238;49.496;8.154;2023-02-22T01:06:21;4.50;99.90
26595;DHT22;14238;49.496;8.154;2023-02-22T01:08:47;4.60;99.90
26595;DHT22;14238;49.496;8.154;2023-02-22T01:11:14;4.60;99.90
26595;DHT22;14238;49.496;8.154;2023-02-22T01:13:40;4.60;99.90
26595;DHT22;14238;49.496;8.154;2023-02-22T01:16:06;4.50;99.90
26595;DHT22;14238;49.496;8.154;2023-02-22T01:18:34;4.50;99.90
26595;DHT22;14238;49.496;8.154;2023-02-22T01:21:00;4.50;99.90
26595;DHT22;14238;49.496;8.154;2023-02-22T01:23:26;4.50;99.90
26595;DHT22;14238;49.496;8.154;2023-02-22T01:25:52;4.30;99.90
26595;DHT22;14238;49.496;8.154;2023-02-22T01:28:18;4.30;99.90
26595;DHT22;14238;49.496;8.154;2023-02-22T01:30:44;4.30;99.90
26595;DHT22;14238;49.496;8.154;2023-02-22T01:33:09;4.30;99.90
26595;DHT22;14238;49.496;8.154;2023-02-22T01:35:37;4.30;99.90
26595;DHT22;14238;49.496;8.154;2023-02-22T01:38:09;4.30;99.90
26595;DHT22;14238;49.496;8.154;2023-02-22T01:40:37;4.40;99.90
26595;DHT22;14238;49.496;8.154;2023-02-22T01:43:14;4.30;99.90
26595;DHT22;14238;49.496;8.154;2023-02-22T01:45:55;4.30;99.90
26595;DHT22;14238;49.496;8.154;2023-02-22T01:51:05;4.20;99.90
26595;DHT22;14238;49.496;8.154;2023-02-22T01:54:00;4.10;99.90
26595;DHT22;14238;49.496;8.154;2023-02-22T01:56:28;4.10;99.90
26595;DHT22;14238;49.496;8.154;2023-02-22T01:58:59;4.20;99.90
26595;DHT22;14238;49.496;8.154;2023-02-22T02:01:27;4.20;99.90
26595;DHT22;14238;49.496;8.154;2023-02-22T02:03:56;4.10;99.90
26595;DHT22;14238;49.496;8.154;2023-02-22T02:06:22;4.10;99.90
26595;DHT22;14238;49.496;8.154;2023-02-22T02:09:02;4.00;99.90
26595;DHT22;14238;49.496;8.154;2023-02-22T02:11:30;4.10;99.90
26595;DHT22;14238;49.496;8.154;2023-02-22T02:13:57;4.00;99.90
26595;DHT22;14238;49.496;8.154;2023-02-22T02:16:25;3.90;99.90
26595;DHT22;14238;49.496;8.154;2023-02-22T02:18:52;3.80;99.90
26595;DHT22;14238;49.496;8.154;2023-02-22T02:29:21;3.70;99.90
26595;DHT22;14238;49.496;8.154;2023-02-22T02:32:28;3.70;99.90
26595;DHT22;14238;49.496;8.154;2023-02-22T02:38:04;3.70;99.90
26595;DHT22;14238;49.496;8.154;2023-02-22T02:40:57;3.90;99.90
26595;DHT22;14238;49.496;8.154;2023-02-22T02:49:04;3.60;99.90
26595;DHT22;14238;49.496;8.154;2023-02-22T02:51:37;3.80;99.90
26595;DHT22;14238;49.496;8.154;2023-02-22T02:54:05;3.60;99.90
26595;DHT22;14238;49.496;8.154;2023-02-22T02:56:32;3.50;99.90
26595;DHT22;14238;49.496;8.154;2023-02-22T02:58:57;3.70;99.90
26595;DHT22;14238;49.496;8.154;2023-02-22T03:01:40;3.80;99.90
26595;DHT22;14238;49.496;8.154;2023-02-22T03:07:02;3.50;99.90
26595;DHT22;14238;49.496;8.154;2023-02-22T03:09:59;3.70;99.90
26595;DHT22;14238;49.496;8.154;2023-02-22T03:12:56;3.70;99.90
26595;DHT22;14238;49.496;8.154;2023-02-22T03:18:29;3.60;99.90
26595;DHT22;14238;49.496;8.154;2023-02-22T03:23:54;3.80;99.90
26595;DHT22;14238;49.496;8.154;2023-02-22T03:26:39;3.80;99.90
26595;DHT22;14238;49.496;8.154;2023-02-22T03:29:07;3.80;99.90
26595;DHT22;14238;49.496;8.154;2023-02-22T03:31:39;3.70;99.90
26595;DHT22;14238;49.496;8.154;2023-02-22T03:34:13;3.70;99.90
26595;DHT22;14238;49.496;8.154;2023-02-22T03:36:47;3.80;99.90
26595;DHT22;14238;49.496;8.154;2023-02-22T03:39:15;3.80;99.90
26595;DHT22;14238;49.496;8.154;2023-02-22T03:41:46;3.90;99.90
26595;DHT22;14238;49.496;8.154;2023-02-22T03:44:21;3.90;99.90
26595;DHT22;14238;49.496;8.154;2023-02-22T03:46:49;3.90;99.90
26595;DHT22;14238;49.496;8.154;2023-02-22T03:49:22;3.70;99.90
26595;DHT22;14238;49.496;8.154;2023-02-22T03:51:50;3.60;99.90
26595;DHT22;14238;49.496;8.154;2023-02-22T03:54:17;3.60;99.90
26595;DHT22;14238;49.496;8.154;2023-02-22T03:56:49;3.70;99.90
26595;DHT22;14238;49.496;8.154;2023-02-22T03:59:16;3.80;99.90
26595;DHT22;14238;49.496;8.154;2023-02-22T04:01:42;3.70;99.90
26595;DHT22;14238;49.496;8.154;2023-02-22T04:04:07;3.70;99.90
26595;DHT22;14238;49.496;8.154;2023-02-22T04:06:33;3.60;99.90
26595;DHT22;14238;49.496;8.154;2023-02-22T04:08:58;3.50;99.90
26595;DHT22;14238;49.496;8.154;2023-02-22T04:11:24;3.50;99.90
26595;DHT22;14238;49.496;8.154;2023-02-22T04:13:50;3.30;99.90
26595;DHT22;14238;49.496;8.154;2023-02-22T04:16:15;3.40;99.90
26595;DHT22;14238;49.496;8.154;2023-02-22T04:18:41;3.40;99.90
26595;DHT22;14238;49.496;8.154;2023-02-22T04:21:06;3.40;99.90
26595;DHT22;14238;49.496;8.154;2023-02-22T04:23:33;3.50;99.90
26595;DHT22;14238;49.496;8.154;2023-02-22T04:25:59;3.50;99.90
26595;DHT22;14238;49.496;8.154;2023-02-22T04:28:24;3.50;99.90
26595;DHT22;14238;49.496;8.154;2023-02-22T04:30:50;3.40;99.90
26595;DHT22;14238;49.496;8.154;2023-02-22T04:33:15;3.40;99.90
26595;DHT22;14238;49.496;8.154;2023-02-22T04:35:41;3.20;99.90
26595;DHT22;14238;49.496;8.154;2023-02-22T04:38:06;3.20;99.90
26595;DHT22;14238;49.496;8.154;2023-02-22T04:40:34;3.30;99.90
26595;DHT22;14238;49.496;8.154;2023-02-22T04:42:59;3.30;99.90
26595;DHT22;14238;49.496;8.154;2023-02-22T04:45:25;3.20;99.90
26595;DHT22;14238;49.496;8.154;2023-02-22T04:47:51;3.20;99.90
26595;DHT22;14238;49.496;8.154;2023-02-22T04:50:16;3.20;99.90
26595;DHT22;14238;49.496;8.154;2023-02-22T04:52:43;3.30;99.90
26595;DHT22;14238;49.496;8.154;2023-02-22T04:55:10;3.30;99.90
26595;DHT22;14238;49.496;8.154;2023-02-22T04:57:35;3.20;99.90
26595;DHT22;14238;49.496;8.154;2023-02-22T05:00:01;3.20;99.90
26595;DHT22;14238;49.496;8.154;2023-02-22T05:02:27;3.20;99.90
26595;DHT22;14238;49.496;8.154;2023-02-22T05:04:53;3.30;99.90
26595;DHT22;14238;49.496;8.154;2023-02-22T05:07:18;3.20;99.90
26595;DHT22;14238;49.496;8.154;2023-02-22T05:09:44;3.30;99.90
26595;DHT22;14238;49.496;8.154;2023-02-22T05:12:09;3.30;99.90
26595;DHT22;14238;49.496;8.154;2023-02-22T05:14:35;3.10;99.90
26595;DHT22;14238;49.496;8.154;2023-02-22T05:17:01;3.20;99.90
26595;DHT22;14238;49.496;8.154;2023-02-22T05:19:27;3.30;99.90
26595;DHT22;14238;49.496;8.154;2023-02-22T05:21:52;3.20;99.90
26595;DHT22;14238;49.496;8.154;2023-02-22T05:24:18;3.20;99.90
26595;DHT22;14238;49.496;8.154;2023-02-22T05:26:44;3.10;99.90
26595;DHT22;14238;49.496;8.154;2023-02-22T05:29:10;3.10;99.90
26595;DHT22;14238;49.496;8.154;2023-02-22T05:31:36;3.10;99.90
26595;DHT22;14238;49.496;8.154;2023-02-22T05:34:02;3.20;99.90
26595;DHT22;14238;49.496;8.154;2023-02-22T05:36:27;3.30;99.90
26595;DHT22;14238;49.496;8.154;2023-02-22T05:38:53;3.40;99.90
26595;DHT22;14238;49.496;8.154;2023-02-22T05:41:19;3.40;99.90
26595;DHT22;14238;49.496;8.154;2023-02-22T05:43:44;3.40;99.90
26595;DHT22;14238;49.496;8.154;2023-02-22T05:46:10;3.40;99.90
26595;DHT22;14238;49.496;8.154;2023-02-22T05:48:36;3.20;99.90
26595;DHT22;14238;49.496;8.154;2023-02-22T05:51:02;3.30;99.90
26595;DHT22;14238;49.496;8.154;2023-02-22T05:53:28;3.30;99.90
26595;DHT22;14238;49.496;8.154;2023-02-22T05:55:54;3.20;99.90
26595;DHT22;14238;49.496;8.154;2023-02-22T05:58:20;3.10;99.90
26595;DHT22;14238;49.496;8.154;2023-02-22T06:00:45;3.10;99.90
26595;DHT22;14238;49.496;8.154;2023-02-22T06:03:11;3.00;99.90
26595;DHT22;14238;49.496;8.154;2023-02-22T06:05:37;2.90;99.90
26595;DHT22;14238;49.496;8.154;2023-02-22T06:08:04;2.90;99.90
26595;DHT22;14238;49.496;8.154;2023-02-22T06:10:31;3.00;99.90
26595;DHT22;14238;49.496;8.154;2023-02-22T06:12:57;3.00;99.90
26595;DHT22;14238;49.496;8.154;2023-02-22T06:15:24;3.10;99.90
26595;DHT22;14238;49.496;8.154;2023-02-22T06:17:51;3.20;99.90
26595;DHT22;14238;49.496;8.154;2023-02-22T06:20:20;3.20;99.90
26595;DHT22;14238;49.496;8.154;2023-02-22T06:22:50;3.10;99.90
26595;DHT22;14238;49.496;8.154;2023-02-22T06:25:19;3.10;99.90
26595;DHT22;14238;49.496;8.154;2023-02-22T06:27:45;3.00;99.90
26595;DHT22;14238;49.496;8.154;2023-02-22T06:30:14;3.10;99.90
26595;DHT22;14238;49.496;8.154;2023-02-22T06:32:40;3.20;99.90
26595;DHT22;14238;49.496;8.154;2023-02-22T06:35:06;3.20;99.90
26595;DHT22;14238;49.496;8.154;2023-02-22T06:37:31;3.20;99.90
26595;DHT22;14238;49.496;8.154;2023-02-22T06:39:57;3.20;99.90
26595;DHT22;14238;49.496;8.154;2023-02-22T06:42:22;3.10;99.90
26595;DHT22;14238;49.496;8.154;2023-02-22T06:44:48;3.10;99.90
26595;DHT22;14238;49.496;8.154;2023-02-22T06:47:14;3.10;99.90
26595;DHT22;14238;49.496;8.154;2023-02-22T06:49:40;3.30;99.90
26595;DHT22;14238;49.496;8.154;2023-02-22T06:52:06;3.20;99.90
26595;DHT22;14238;49.496;8.154;2023-02-22T06:54:33;3.10;99.90
26595;DHT22;14238;49.496;8.154;2023-02-22T06:56:58;3.10;99.90
26595;DHT22;14238;49.496;8.154;2023-02-22T06:59:24;3.30;99.90
26595;DHT22;14238;49.496;8.154;2023-02-22T07:01:49;3.40;99.90
26595;DHT22;14238;49.496;8.154;2023-02-22T07:04:15;3.40;99.90
26595;DHT22;14238;49.496;8.154;2023-02-22T07:06:45;3.50;99.90
26595;DHT22;14238;49.496;8.154;2023-02-22T07:09:11;3.40;99.90
26595;DHT22;14238;49.496;8.154;2023-02-22T07:11:38;3.50;99.90
26595;DHT22;14238;49.496;8.154;2023-02-22T07:14:04;3.60;99.90
26595;DHT22;14238;49.496;8.154;2023-02-22T07:16:29;3.70;99.90
26595;DHT22;14238;49.496;8.154;2023-02-22T07:18:55;3.60;99.90
26595;DHT22;14238;49.496;8.154;2023-02-22T07:21:20;3.60;99.90
26595;DHT22;14238;49.496;8.154;2023-02-22T07:23:51;3.70;99.90
26595;DHT22;14238;49.496;8.154;2023-02-22T07:26:17;3.70;99.90
26595;DHT22;14238;49.496;8.154;2023-02-22T07:28:43;3.60;99.90
26595;DHT22;14238;49.496;8.154;2023-02-22T07:31:08;3.70;99.90
26595;DHT22;14238;49.496;8.154;2023-02-22T07:33:34;3.80;99.90
26595;DHT22;14238;49.496;8.154;2023-02-22T07:36:00;3.90;99.90
26595;DHT22;14238;49.496;8.154;2023-02-22T07:38:25;4.10;99.90
26595;DHT22;14238;49.496;8.154;2023-02-22T07:40:51;4.20;99.90
26595;DHT22;14238;49.496;8.154;2023-02-22T07:43:22;4.30;99.90
26595;DHT22;14238;49.496;8.154;2023-02-22T07:45:51;4.30;99.90
26595;DHT22;14238;49.496;8.154;2023-02-22T07:48:18;4.30;99.90
26595;DHT22;14238;49.496;8.154;2023-02-22T07:50:44;4.40;99.90
26595;DHT22;14238;49.496;8.154;2023-02-22T07:53:23;4.50;99.90
26595;DHT22;14238;49.496;8.154;2023-02-22T07:55:49;4.80;99.90
26595;DHT22;14238;49.496;8.154;2023-02-22T07:58:21;4.80;99.90
26595;DHT22;14238;49.496;8.154;2023-02-22T08:00:47;4.90;99.90
26595;DHT22;14238;49.496;8.154;2023-02-22T08:03:15;5.10;99.90
26595;DHT22;14238;49.496;8.154;2023-02-22T08:05:44;5.30;99.90
26595;DHT22;14238;49.496;8.154;2023-02-22T08:08:10;5.50;99.90
26595;DHT22;14238;49.496;8.154;2023-02-22T08:10:35;5.60;99.90
26595;DHT22;14238;49.496;8.154;2023-02-22T08:13:02;5.70;99.90
26595;DHT22;14238;49.496;8.154;2023-02-22T08:15:31;5.80;99.90
26595;DHT22;14238;49.496;8.154;2023-02-22T08:17:57;5.90;99.90
26595;DHT22;14238;49.496;8.154;2023-02-22T08:20:24;6.00;99.90
26595;DHT22;14238;49.496;8.154;2023-02-22T08:22:50;6.20;99.90
26595;DHT22;14238;49.496;8.154;2023-02-22T08:25:17;6.40;99.90
26595;DHT22;14238;49.496;8.154;2023-02-22T08:27:43;6.50;99.90
26595;DHT22;14238;49.496;8.154;2023-02-22T08:30:20;6.60;99.90
26595;DHT22;14238;49.496;8.154;2023-02-22T08:32:46;6.70;99.90
26595;DHT22;14238;49.496;8.154;2023-02-22T08:35:13;6.80;99.90
26595;DHT22;14238;49.496;8.154;2023-02-22T08:37:49;7.00;99.90
26595;DHT22;14238;49.496;8.154;2023-02-22T08:40:17;7.20;99.90
26595;DHT22;14238;49.496;8.154;2023-02-22T08:42:43;7.30;99.90
26595;DHT22;14238;49.496;8.154;2023-02-22T08:45:10;7.30;99.90
26595;DHT22;14238;49.496;8.154;2023-02-22T08:47:37;7.40;99.90
26595;DHT22;14238;49.496;8.154;2023-02-22T08:50:03;7.60;99.90
26595;DHT22;14238;49.496;8.154;2023-02-22T08:52:29;7.70;99.90
26595;DHT22;14238;49.496;8.154;2023-02-22T08:54:54;7.70;99.90
26595;DHT22;14238;49.496;8.154;2023-02-22T08:57:20;7.80;99.90
26595;DHT22;14238;49.496;8.154;2023-02-22T08:59:46;7.80;99.90
26595;DHT22;14238;49.496;8.154;2023-02-22T09:02:20;8.00;99.90
26595;DHT22;14238;49.496;8.154;2023-02-22T09:04:47;8.10;99.90
26595;DHT22;14238;49.496;8.154;2023-02-22T09:07:13;7.90;99.90
26595;DHT22;14238;49.496;8.154;2023-02-22T09:09:41;8.00;99.90
26595;DHT22;14238;49.496;8.154;2023-02-22T09:12:07;8.10;99.90
26595;DHT22;14238;49.496;8.154;2023-02-22T09:14:32;8.20;99.90
26595;DHT22;14238;49.496;8.154;2023-02-22T09:16:58;8.30;99.90
26595;DHT22;14238;49.496;8.154;2023-02-22T09:19:24;8.30;99.90
26595;DHT22;14238;49.496;8.154;2023-02-22T09:21:54;8.50;99.90
26595;DHT22;14238;49.496;8.154;2023-02-22T09:24:19;8.50;99.90
26595;DHT22;14238;49.496;8.154;2023-02-22T09:26:46;8.50;99.90
26595;DHT22;14238;49.496;8.154;2023-02-22T09:29:12;8.40;99.90
26595;DHT22;14238;49.496;8.154;2023-02-22T09:31:38;8.50;99.90
26595;DHT22;14238;49.496;8.154;2023-02-22T09:34:06;8.70;99.90
26595;DHT22;14238;49.496;8.154;2023-02-22T09:36:39;8.60;99.90
26595;DHT22;14238;49.496;8.154;2023-02-22T09:39:04;8.80;99.90
26595;DHT22;14238;49.496;8.154;2023-02-22T09:41:38;8.90;99.90
26595;DHT22;14238;49.496;8.154;2023-02-22T09:47:14;9.20;99.90
26595;DHT22;14238;49.496;8.154;2023-02-22T09:49:55;9.40;99.90
26595;DHT22;14238;49.496;8.154;2023-02-22T09:52:29;9.60;99.90
26595;DHT22;14238;49.496;8.154;2023-02-22T09:55:08;9.70;99.90
26595;DHT22;14238;49.496;8.154;2023-02-22T09:57:39;10.10;99.90
26595;DHT22;14238;49.496;8.154;2023-02-22T10:00:23;10.50;99.90
26595;DHT22;14238;49.496;8.154;2023-02-22T10:03:14;10.80;99.90
26595;DHT22;14238;49.496;8.154;2023-02-22T10:05:47;11.30;99.90
26595;DHT22;14238;49.496;8.154;2023-02-22T10:08:16;12.00;99.90
26595;DHT22;14238;49.496;8.154;2023-02-22T10:10:45;12.20;99.90
26595;DHT22;14238;49.496;8.154;2023-02-22T10:15:41;12.80;99.90
26595;DHT22;14238;49.496;8.154;2023-02-22T10:18:29;13.00;99.90
26595;DHT22;14238;49.496;8.154;2023-02-22T10:23:42;13.20;99.90
26595;DHT22;14238;49.496;8.154;2023-02-22T10:26:18;13.20;99.90
26595;DHT22;14238;49.496;8.154;2023-02-22T10:31:42;13.10;99.90
26595;DHT22;14238;49.496;8.154;2023-02-22T10:34:16;12.40;99.90
26595;DHT22;14238;49.496;8.154;2023-02-22T10:36:47;12.50;99.90
26595;DHT22;14238;49.496;8.154;2023-02-22T10:39:22;13.00;99.90
26595;DHT22;14238;49.496;8.154;2023-02-22T10:41:54;12.80;99.90
26595;DHT22;14238;49.496;8.154;2023-02-22T10:44:20;12.90;99.90
26595;DHT22;14238;49.496;8.154;2023-02-22T10:46:46;13.40;99.90
26595;DHT22;14238;49.496;8.154;2023-02-22T10:49:17;13.60;99.90
26595;DHT22;14238;49.496;8.154;2023-02-22T10:51:44;13.80;99.90
26595;DHT22;14238;49.496;8.154;2023-02-22T10:56:50;13.80;99.90
26595;DHT22;14238;49.496;8.154;2023-02-22T10:59:37;13.70;99.90
26595;DHT22;14238;49.496;8.154;2023-02-22T11:02:32;14.40;99.90
26595;DHT22;14238;49.496;8.154;2023-02-22T11:05:02;14.40;99.90
26595;DHT22;14238;49.496;8.154;2023-02-22T11:07:35;13.70;99.90
26595;DHT22;14238;49.496;8.154;2023-02-22T11:10:04;13.40;99.90
26595;DHT22;14238;49.496;8.154;2023-02-22T11:12:35;13.70;99.90
26595;DHT22;14238;49.496;8.154;2023-02-22T11:17:48;15.20;99.90
26595;DHT22;14238;49.496;8.154;2023-02-22T11:20:32;14.70;99.90
26595;DHT22;14238;49.496;8.154;2023-02-22T11:23:01;14.50;99.90
26595;DHT22;14238;49.496;8.154;2023-02-22T11:25:36;15.10;99.90
26595;DHT22;14238;49.496;8.154;2023-02-22T11:28:19;15.20;99.90
26595;DHT22;14238;49.496;8.154;2023-02-22T11:30:56;15.30;99.90
26595;DHT22;14238;49.496;8.154;2023-02-22T11:33:24;14.90;99.90
26595;DHT22;14238;49.496;8.154;2023-02-22T11:35:53;15.20;99.90
26595;DHT22;14238;49.496;8.154;2023-02-22T11:38:27;15.20;99.90
26595;DHT22;14238;49.496;8.154;2023-02-22T11:41:10;15.50;99.90
26595;DHT22;14238;49.496;8.154;2023-02-22T11:43:39;15.10;99.90
26595;DHT22;14238;49.496;8.154;2023-02-22T11:46:09;15.00;99.90
26595;DHT22;14238;49.496;8.154;2023-02-22T11:48:37;15.20;99.90
26595;DHT22;14238;49.496;8.154;2023-02-22T11:54:18;15.10;99.90
26595;DHT22;14238;49.496;8.154;2023-02-22T12:03:00;15.30;99.90
26595;DHT22;14238;49.496;8.154;2023-02-22T12:06:00;16.00;99.90
26595;DHT22;14238;49.496;8.154;2023-02-22T12:08:59;16.30;99.90
26595;DHT22;14238;49.496;8.154;2023-02-22T12:14:43;16.30;99.90
26595;DHT22;14238;49.496;8.154;2023-02-22T12:22:38;17.20;99.90
26595;DHT22;14238;49.496;8.154;2023-02-22T12:25:20;17.50;99.90
26595;DHT22;14238;49.496;8.154;2023-02-22T12:27:59;15.50;99.90
26595;DHT22;14238;49.496;8.154;2023-02-22T12:30:30;15.60;99.90
26595;DHT22;14238;49.496;8.154;2023-02-22T12:33:01;16.10;99.90
26595;DHT22;14238;49.496;8.154;2023-02-22T12:35:31;16.50;99.90
26595;DHT22;14238;49.496;8.154;2023-02-22T12:38:20;16.50;99.90
26595;DHT22;14238;49.496;8.154;2023-02-22T12:40:59;16.50;99.90
26595;DHT22;14238;49.496;8.154;2023-02-22T12:43:38;16.80;99.90
26595;DHT22;14238;49.496;8.154;2023-02-22T12:46:14;17.20;99.90
26595;DHT22;14238;49.496;8.154;2023-02-22T12:48:57;16.70;99.90
26595;DHT22;14238;49.496;8.154;2023-02-22T12:51:47;16.90;99.90
26595;DHT22;14238;49.496;8.154;2023-02-22T12:56:58;15.50;99.90
26595;DHT22;14238;49.496;8.154;2023-02-22T12:59:31;16.00;99.90
26595;DHT22;14238;49.496;8.154;2023-02-22T13:02:14;15.90;99.90
26595;DHT22;14238;49.496;8.154;2023-02-22T13:04:41;15.50;99.90
26595;DHT22;14238;49.496;8.154;2023-02-22T13:10:17;14.90;99.90
26595;DHT22;14238;49.496;8.154;2023-02-22T13:13:02;15.30;99.90
26595;DHT22;14238;49.496;8.154;2023-02-22T13:19:42;16.10;99.90
26595;DHT22;14238;49.496;8.154;2023-02-22T13:22:14;16.50;99.90
26595;DHT22;14238;49.496;8.154;2023-02-22T13:30:41;17.20;99.90
26595;DHT22;14238;49.496;8.154;2023-02-22T13:34:01;17.40;99.90
26595;DHT22;14238;49.496;8.154;2023-02-22T13:36:28;17.20;99.90
26595;DHT22;14238;49.496;8.154;2023-02-22T13:44:25;17.00;99.90
26595;DHT22;14238;49.496;8.154;2023-02-22T13:52:34;16.80;99.90
26595;DHT22;14238;49.496;8.154;2023-02-22T13:55:05;17.20;99.90
26595;DHT22;14238;49.496;8.154;2023-02-22T13:57:47;16.90;99.90
26595;DHT22;14238;49.496;8.154;2023-02-22T14:03:01;16.60;99.90
26595;DHT22;14238;49.496;8.154;2023-02-22T14:13:20;15.10;99.90
26595;DHT22;14238;49.496;8.154;2023-02-22T14:18:44;14.80;99.90
26595;DHT22;14238;49.496;8.154;2023-02-22T14:23:48;14.60;99.90
26595;DHT22;14238;49.496;8.154;2023-02-22T14:26:29;14.40;99.90
26595;DHT22;14238;49.496;8.154;2023-02-22T14:34:18;14.30;99.90
26595;DHT22;14238;49.496;8.154;2023-02-22T14:36:57;14.30;99.90
26595;DHT22;14238;49.496;8.154;2023-02-22T14:39:31;14.10;99.90
26595;DHT22;14238;49.496;8.154;2023-02-22T14:53:19;13.90;99.90
26595;DHT22;14238;49.496;8.154;2023-02-22T14:55:51;13.90;99.90
26595;DHT22;14238;49.496;8.154;2023-02-22T14:58:24;13.90;99.90
26595;DHT22;14238;49.496;8.154;2023-02-22T15:00:52;13.90;99.90
26595;DHT22;14238;49.496;8.154;2023-02-22T15:05:46;13.90;99.90
26595;DHT22;14238;49.496;8.154;2023-02-22T15:08:15;13.90;99.90
26595;DHT22;14238;49.496;8.154;2023-02-22T15:10:47;13.90;99.90
26595;DHT22;14238;49.496;8.154;2023-02-22T15:13:25;13.80;99.90
26595;DHT22;14238;49.496;8.154;2023-02-22T15:15:57;13.90;99.90
26595;DHT22;14238;49.496;8.154;2023-02-22T15:18:29;13.80;99.90
26595;DHT22;14238;49.496;8.154;2023-02-22T15:21:02;13.80;99.90
26595;DHT22;14238;49.496;8.154;2023-02-22T15:23:39;13.90;99.90
26595;DHT22;14238;49.496;8.154;2023-02-22T15:26:06;13.90;99.90
26595;DHT22;14238;49.496;8.154;2023-02-22T15:28:32;13.90;99.90
26595;DHT22;14238;49.496;8.154;2023-02-22T15:31:47;13.90;99.90
26595;DHT22;14238;49.496;8.154;2023-02-22T15:36:43;13.70;99.90
26595;DHT22;14238;49.496;8.154;2023-02-22T15:39:27;13.60;99.90
26595;DHT22;14238;49.496;8.154;2023-02-22T15:42:20;13.60;99.90
26595;DHT22;14238;49.496;8.154;2023-02-22T15:44:49;13.50;99.90
26595;DHT22;14238;49.496;8.154;2023-02-22T15:47:23;13.40;99.90
26595;DHT22;14238;49.496;8.154;2023-02-22T15:55:36;13.10;99.90
26595;DHT22;14238;49.496;8.154;2023-02-22T16:00:46;13.00;99.90
26595;DHT22;14238;49.496;8.154;2023-02-22T16:03:19;12.80;99.90
26595;DHT22;14238;49.496;8.154;2023-02-22T16:05:55;12.80;99.90
26595;DHT22;14238;49.496;8.154;2023-02-22T16:08:22;12.60;99.90
26595;DHT22;14238;49.496;8.154;2023-02-22T16:10:58;12.50;99.90
26595;DHT22;14238;49.496;8.154;2023-02-22T16:13:28;12.30;99.90
26595;DHT22;14238;49.496;8.154;2023-02-22T16:18:33;12.10;99.90
26595;DHT22;14238;49.496;8.154;2023-02-22T16:21:03;12.00;99.90
26595;DHT22;14238;49.496;8.154;2023-02-22T16:23:30;11.60;99.90
26595;DHT22;14238;49.496;8.154;2023-02-22T16:26:27;11.40;99.90
26595;DHT22;14238;49.496;8.154;2023-02-22T16:28:53;11.40;99.90
26595;DHT22;14238;49.496;8.154;2023-02-22T16:31:22;11.20;99.90
26595;DHT22;14238;49.496;8.154;2023-02-22T16:33:50;11.10;99.90
26595;DHT22;14238;49.496;8.154;2023-02-22T16:36:16;10.90;99.90
26595;DHT22;14238;49.496;8.154;2023-02-22T16:38:43;10.80;99.90
26595;DHT22;14238;49.496;8.154;2023-02-22T16:41:12;10.60;99.90
26595;DHT22;14238;49.496;8.154;2023-02-22T16:43:42;10.50;99.90
26595;DHT22;14238;49.496;8.154;2023-02-22T16:46:10;10.40;99.90
26595;DHT22;14238;49.496;8.154;2023-02-22T16:48:35;10.30;99.90
26595;DHT22;14238;49.496;8.154;2023-02-22T16:51:08;10.60;99.90
26595;DHT22;14238;49.496;8.154;2023-02-22T16:53:35;11.00;99.90
26595;DHT22;14238;49.496;8.154;2023-02-22T16:56:04;11.30;99.90
26595;DHT22;14238;49.496;8.154;2023-02-22T16:58:35;11.50;99.90
26595;DHT22;14238;49.496;8.154;2023-02-22T17:01:02;11.30;99.90
26595;DHT22;14238;49.496;8.154;2023-02-22T17:03:28;11.40;99.90
26595;DHT22;14238;49.496;8.154;2023-02-22T17:05:53;11.50;99.90
26595;DHT22;14238;49.496;8.154;2023-02-22T17:08:19;11.30;99.90
26595;DHT22;14238;49.496;8.154;2023-02-22T17:10:44;11.40;99.90
26595;DHT22;14238;49.496;8.154;2023-02-22T17:13:18;11.30;99.90
26595;DHT22;14238;49.496;8.154;2023-02-22T17:15:45;11.30;99.90
26595;DHT22;14238;49.496;8.154;2023-02-22T17:18:12;11.20;99.90
26595;DHT22;14238;49.496;8.154;2023-02-22T17:20:38;11.30;99.90
26595;DHT22;14238;49.496;8.154;2023-02-22T17:23:08;11.20;99.90
26595;DHT22;14238;49.496;8.154;2023-02-22T17:25:40;11.10;99.90
26595;DHT22;14238;49.496;8.154;2023-02-22T17:28:07;11.10;99.90
26595;DHT22;14238;49.496;8.154;2023-02-22T17:30:32;11.00;99.90
26595;DHT22;14238;49.496;8.154;2023-02-22T17:33:00;11.00;99.90
26595;DHT22;14238;49.496;8.154;2023-02-22T17:35:31;10.90;99.90
26595;DHT22;14238;49.496;8.154;2023-02-22T17:37:58;10.90;99.90
26595;DHT22;14238;49.496;8.154;2023-02-22T17:40:25;10.80;99.90
26595;DHT22;14238;49.496;8.154;2023-02-22T17:42:50;10.90;99.90
26595;DHT22;14238;49.496;8.154;2023-02-22T17:45:21;10.90;99.90
26595;DHT22;14238;49.496;8.154;2023-02-22T17:47:48;10.80;99.90
26595;DHT22;14238;49.496;8.154;2023-02-22T17:50:14;10.70;99.90
26595;DHT22;14238;49.496;8.154;2023-02-22T17:52:41;10.60;99.90
26595;DHT22;14238;49.496;8.154;2023-02-22T17:55:07;10.60;99.90
26595;DHT22;14238;49.496;8.154;2023-02-22T17:57:33;10.50;99.90
26595;DHT22;14238;49.496;8.154;2023-02-22T18:00:00;10.40;99.90
26595;DHT22;14238;49.496;8.154;2023-02-22T18:02:26;10.40;99.90
26595;DHT22;14238;49.496;8.154;2023-02-22T18:04:51;10.50;99.90
26595;DHT22;14238;49.496;8.154;2023-02-22T18:07:17;10.50;99.90
26595;DHT22;14238;49.496;8.154;2023-02-22T18:09:46;10.30;99.90
26595;DHT22;14238;49.496;8.154;2023-02-22T18:12:11;10.10;99.90
26595;DHT22;14238;49.496;8.154;2023-02-22T18:14:37;10.00;99.90